createdAt,value
2022-12-19T00:00:38.333Z,23.90
2022-12-19T00:03:06.829Z,23.90
2022-12-19T00:05:38.820Z,22.53
2022-12-19T00:08:16.831Z,24.23
2022-12-19T00:10:55.964Z,22.90
2022-12-19T00:13:24.278Z,22.13
2022-12-19T00:15:52.799Z,23.20
2022-12-19T00:18:21.355Z,22.50
2022-12-19T00:20:57.007Z,24.30
2022-12-19T00:23:25.196Z,23.47
2022-12-19T00:26:06.979Z,23.30
2022-12-19T00:28:35.163Z,24.07
2022-12-19T00:31:05.071Z,23.23
2022-12-19T00:33:33.431Z,23.10
2022-12-19T00:36:06.618Z,26.63
2022-12-19T00:38:35.848Z,24.60
2022-12-19T00:41:13.726Z,27.63
2022-12-19T00:43:42.654Z,25.40
2022-12-19T00:46:12.835Z,26.87
2022-12-19T00:48:42.134Z,26.57
2022-12-19T00:51:12.923Z,26.30
2022-12-19T00:53:44.173Z,27.60
2022-12-19T00:56:16.145Z,24.73
2022-12-19T00:58:47.141Z,27.67
2022-12-19T01:01:18.206Z,25.37
2022-12-19T01:04:18.541Z,26.20
2022-12-19T01:06:36.397Z,28.63
2022-12-19T01:09:10.218Z,28.73
2022-12-19T01:11:57.381Z,29.97
2022-12-19T01:14:26.208Z,27.90
2022-12-19T01:16:54.346Z,28.20
2022-12-19T01:19:22.504Z,30.10
2022-12-19T01:21:50.557Z,27.97
2022-12-19T01:24:19.913Z,26.97
2022-12-19T01:26:52.365Z,28.60
2022-12-19T01:29:20.761Z,29.53
2022-12-19T01:31:49.438Z,28.80
2022-12-19T01:34:17.667Z,28.30
2022-12-19T01:36:45.762Z,29.90
2022-12-19T01:39:14.241Z,30.10
2022-12-19T01:41:42.315Z,32.47
2022-12-19T01:44:11.800Z,30.20
2022-12-19T01:46:43.167Z,28.90
2022-12-19T01:49:17.213Z,31.93
2022-12-19T01:51:49.904Z,29.07
2022-12-19T01:54:22.963Z,30.60
2022-12-19T01:56:52.906Z,33.03
2022-12-19T01:59:26.279Z,33.93
2022-12-19T02:01:59.897Z,34.10
2022-12-19T02:04:32.635Z,30.63
2022-12-19T02:07:07.513Z,32.40
2022-12-19T02:09:46.007Z,33.80
2022-12-19T02:12:15.364Z,33.07
2022-12-19T02:14:45.348Z,32.47
2022-12-19T02:17:22.019Z,32.97
2022-12-19T02:20:25.929Z,32.67
2022-12-19T02:23:12.132Z,30.67
2022-12-19T02:26:02.621Z,32.30
2022-12-19T02:28:44.503Z,31.60
2022-12-19T02:31:20.507Z,29.80
2022-12-19T02:33:56.682Z,34.77
2022-12-19T02:36:30.513Z,33.23
2022-12-19T02:39:08.244Z,31.63
2022-12-19T02:41:44.129Z,30.23
2022-12-19T02:44:23.157Z,31.93
2022-12-19T02:46:54.362Z,33.00
2022-12-19T02:49:30.905Z,35.90
2022-12-19T02:52:10.255Z,33.43
2022-12-19T02:54:39.447Z,36.80
2022-12-19T02:57:21.260Z,34.77
2022-12-19T03:00:03.430Z,32.83
2022-12-19T03:02:43.531Z,34.10
2022-12-19T03:05:25.942Z,31.50
2022-12-19T03:08:00.962Z,34.27
2022-12-19T03:10:35.653Z,30.10
2022-12-19T03:13:08.782Z,30.27
2022-12-19T03:15:40.653Z,33.90
2022-12-19T03:18:11.670Z,33.50
2022-12-19T03:20:45.789Z,35.40
2022-12-19T03:23:15.137Z,33.20
2022-12-19T03:25:47.129Z,31.40
2022-12-19T03:28:22.255Z,32.37
2022-12-19T03:30:51.053Z,35.47
2022-12-19T03:33:21.906Z,32.50
2022-12-19T03:35:51.580Z,32.47
2022-12-19T03:38:21.578Z,35.17
2022-12-19T03:40:50.980Z,35.87
2022-12-19T03:43:19.889Z,31.90
2022-12-19T03:45:54.365Z,37.03
2022-12-19T03:48:34.229Z,34.93
2022-12-19T03:51:10.139Z,34.10
2022-12-19T03:53:49.166Z,34.30
2022-12-19T03:56:26.393Z,34.37
2022-12-19T03:59:01.871Z,33.70
2022-12-19T04:01:30.390Z,34.17
2022-12-19T04:04:01.254Z,38.20
2022-12-19T04:06:32.155Z,34.10
2022-12-19T04:09:01.405Z,35.00
2022-12-19T04:11:35.525Z,34.53
2022-12-19T04:14:08.777Z,36.20
2022-12-19T04:16:44.170Z,36.50
2022-12-19T04:19:19.948Z,38.03
2022-12-19T04:21:54.556Z,34.00
2022-12-19T04:24:27.308Z,32.83
2022-12-19T04:26:57.062Z,35.00
2022-12-19T04:29:27.629Z,36.20
2022-12-19T04:31:56.204Z,34.00
2022-12-19T04:34:25.631Z,33.03
2022-12-19T04:36:53.815Z,34.20
2022-12-19T04:39:21.888Z,37.83
2022-12-19T04:41:50.326Z,38.10
2022-12-19T04:44:18.511Z,39.73
2022-12-19T04:46:46.783Z,43.00
2022-12-19T04:49:15.513Z,39.37
2022-12-19T04:51:45.022Z,47.13
2022-12-19T04:54:13.081Z,38.40
2022-12-19T04:56:41.301Z,37.83
2022-12-19T04:59:09.357Z,39.93
2022-12-19T05:01:37.561Z,38.00
2022-12-19T05:04:05.849Z,36.53
2022-12-19T05:06:34.258Z,36.60
2022-12-19T05:09:03.761Z,39.67
2022-12-19T05:11:34.341Z,37.47
2022-12-19T05:14:02.483Z,38.87
2022-12-19T05:16:30.643Z,41.13
2022-12-19T05:18:58.800Z,40.57
2022-12-19T05:21:26.916Z,45.00
2022-12-19T05:23:55.667Z,38.23
2022-12-19T05:26:25.165Z,40.70
2022-12-19T05:28:53.505Z,41.27
2022-12-19T05:31:22.725Z,44.53
2022-12-19T05:33:51.213Z,38.60
2022-12-19T05:36:20.166Z,37.50
2022-12-19T05:38:48.296Z,39.63
2022-12-19T05:41:18.175Z,38.80
2022-12-19T05:43:51.120Z,40.60
2022-12-19T05:46:19.644Z,36.30
2022-12-19T05:48:48.890Z,40.97
2022-12-19T05:51:17.161Z,39.83
2022-12-19T05:53:45.336Z,37.50
2022-12-19T05:56:15.445Z,37.07
2022-12-19T05:58:44.933Z,37.50
2022-12-19T06:01:16.298Z,39.50
2022-12-19T06:03:45.214Z,38.03
2022-12-19T06:06:18.104Z,39.33
2022-12-19T06:08:46.280Z,40.30
2022-12-19T06:11:15.603Z,41.33
2022-12-19T06:13:43.780Z,42.80
2022-12-19T06:16:15.211Z,42.23
2022-12-19T06:18:45.427Z,38.57
2022-12-19T06:21:15.423Z,42.60
2022-12-19T06:23:44.082Z,40.47
2022-12-19T06:26:19.118Z,38.57
2022-12-19T06:28:48.206Z,44.10
2022-12-19T06:31:18.751Z,43.27
2022-12-19T06:33:47.086Z,48.13
2022-12-19T06:36:19.703Z,40.67
2022-12-19T06:38:48.235Z,42.57
2022-12-19T06:41:34.171Z,43.07
2022-12-19T06:44:03.374Z,44.80
2022-12-19T06:46:33.447Z,43.43
2022-12-19T06:49:01.832Z,40.50
2022-12-19T06:51:30.009Z,46.10
2022-12-19T06:53:58.348Z,42.00
2022-12-19T06:56:26.436Z,43.60
2022-12-19T06:58:54.691Z,43.67
2022-12-19T07:01:35.727Z,45.53
2022-12-19T07:04:05.765Z,40.60
2022-12-19T07:06:34.082Z,49.03
2022-12-19T07:09:02.290Z,46.93
2022-12-19T07:11:30.370Z,41.87
2022-12-19T07:13:58.480Z,38.80
2022-12-19T07:16:28.150Z,43.00
2022-12-19T07:18:56.375Z,42.13
2022-12-19T07:21:25.979Z,40.63
2022-12-19T07:23:54.276Z,45.83
2022-12-19T07:26:23.241Z,42.10
2022-12-19T07:28:51.465Z,43.23
2022-12-19T07:31:19.776Z,46.73
2022-12-19T07:33:47.921Z,49.90
2022-12-19T07:36:15.994Z,46.00
2022-12-19T07:38:45.564Z,47.33
2022-12-19T07:41:13.731Z,47.00
2022-12-19T07:43:42.105Z,47.80
2022-12-19T07:46:10.391Z,49.07
2022-12-19T07:48:38.704Z,46.13
2022-12-19T07:51:07.195Z,47.40
2022-12-19T07:53:35.301Z,48.30
2022-12-19T07:56:04.972Z,43.50
2022-12-19T07:58:33.398Z,52.07
2022-12-19T08:01:02.542Z,49.40
2022-12-19T08:03:33.576Z,49.80
2022-12-19T08:06:02.584Z,49.07
2022-12-19T08:08:31.219Z,49.57
2022-12-19T08:11:08.966Z,49.23
2022-12-19T08:13:40.918Z,47.47
2022-12-19T08:16:13.366Z,49.83
2022-12-19T08:18:41.676Z,50.50
2022-12-19T08:21:10.241Z,50.60
2022-12-19T08:23:39.080Z,53.43
2022-12-19T08:26:12.031Z,47.30
2022-12-19T08:28:40.419Z,48.57
2022-12-19T08:31:09.704Z,54.17
2022-12-19T08:33:38.553Z,50.20
2022-12-19T08:36:08.051Z,47.50
2022-12-19T08:38:36.936Z,60.13
2022-12-19T08:41:05.134Z,53.37
2022-12-19T08:43:35.559Z,51.00
2022-12-19T08:46:03.852Z,52.27
2022-12-19T08:48:33.107Z,58.30
2022-12-19T08:51:03.847Z,58.30
2022-12-19T08:53:34.676Z,48.07
2022-12-19T08:56:05.908Z,53.53
2022-12-19T08:58:35.903Z,52.17
2022-12-19T09:01:06.281Z,55.03
2022-12-19T09:03:47.890Z,49.10
2022-12-19T09:06:22.926Z,54.90
2022-12-19T09:08:51.078Z,57.30
2022-12-19T09:11:21.465Z,53.17
2022-12-19T09:13:51.677Z,51.47
2022-12-19T09:16:21.579Z,49.67
2022-12-19T09:18:51.297Z,54.20
2022-12-19T09:21:20.627Z,52.73
2022-12-19T09:23:50.539Z,50.27
2022-12-19T09:26:18.964Z,52.60
2022-12-19T09:28:48.569Z,46.03
2022-12-19T09:31:20.218Z,53.97
2022-12-19T09:33:49.188Z,53.60
2022-12-19T09:36:20.388Z,50.77
2022-12-19T09:38:49.204Z,50.60
2022-12-19T09:41:41.746Z,51.93
2022-12-19T09:44:21.415Z,52.37
2022-12-19T09:46:56.359Z,47.60
2022-12-19T09:49:28.173Z,58.50
2022-12-19T09:52:01.918Z,53.57
2022-12-19T09:54:36.372Z,49.83
2022-12-19T09:57:06.902Z,48.43
2022-12-19T09:59:49.398Z,49.00
2022-12-19T10:02:34.498Z,52.50
2022-12-19T10:05:12.883Z,49.20
2022-12-19T10:08:10.490Z,49.30
2022-12-19T10:12:38.877Z,47.80
2022-12-19T10:13:52.807Z,46.97
2022-12-19T10:16:29.412Z,50.10
2022-12-19T10:19:02.713Z,47.43
2022-12-19T10:22:16.928Z,50.13
2022-12-19T10:25:08.062Z,47.20
2022-12-19T10:27:58.753Z,44.77
2022-12-19T10:30:31.205Z,46.00
2022-12-19T10:33:11.811Z,45.07
2022-12-19T10:36:02.506Z,49.30
2022-12-19T10:38:38.383Z,48.23
2022-12-19T10:41:16.439Z,43.80
2022-12-19T10:43:55.312Z,45.30
2022-12-19T10:46:34.768Z,39.77
2022-12-19T10:49:07.862Z,45.43
2022-12-19T10:51:37.482Z,43.13
2022-12-19T10:54:05.670Z,44.10
2022-12-19T10:56:37.776Z,45.40
2022-12-19T10:59:17.650Z,42.10
2022-12-19T11:01:47.198Z,42.80
2022-12-19T11:04:32.497Z,40.63
2022-12-19T11:07:19.811Z,42.63
2022-12-19T11:09:57.327Z,42.47
2022-12-19T11:16:58.489Z,42.57
2022-12-19T11:19:47.138Z,45.80
2022-12-19T11:27:42.176Z,45.30
2022-12-19T11:29:30.994Z,46.40
2022-12-19T11:29:42.227Z,48.37
2022-12-19T11:30:43.937Z,47.40
2022-12-19T11:32:41.231Z,47.67
2022-12-19T11:35:19.683Z,48.87
2022-12-19T11:37:55.684Z,47.90
2022-12-19T11:40:34.516Z,46.67
2022-12-19T11:43:43.101Z,49.50
2022-12-19T11:46:01.977Z,47.80
2022-12-19T11:48:38.698Z,48.47
2022-12-19T11:51:15.913Z,51.23
2022-12-19T11:53:53.817Z,46.40
2022-12-19T11:56:25.716Z,48.10
2022-12-19T11:58:57.329Z,46.90
2022-12-19T12:01:51.253Z,48.00
2022-12-19T12:04:55.861Z,47.93
2022-12-19T12:08:11.564Z,47.10
2022-12-19T12:17:41.002Z,47.80
2022-12-19T12:24:19.859Z,48.23
2022-12-19T12:30:51.097Z,47.27
2022-12-19T12:31:23.775Z,49.80
2022-12-19T12:31:27.090Z,49.80
2022-12-19T12:31:38.889Z,49.60
2022-12-19T12:32:05.400Z,50.97
2022-12-19T12:35:51.822Z,50.17
2022-12-19T12:38:19.055Z,50.17
2022-12-19T12:40:52.653Z,51.43
2022-12-19T12:43:36.360Z,52.30
2022-12-19T12:46:05.548Z,52.40
2022-12-19T12:48:39.110Z,51.80
2022-12-19T12:51:08.423Z,50.60
2022-12-19T12:53:39.335Z,50.80
2022-12-19T12:56:10.949Z,50.67
2022-12-19T12:59:06.346Z,53.03
2022-12-19T13:01:37.698Z,51.10
2022-12-19T13:04:19.200Z,50.83
2022-12-19T13:07:24.981Z,52.50
2022-12-19T13:10:05.900Z,52.43
2022-12-19T13:12:51.389Z,51.20
2022-12-19T13:15:39.417Z,55.10
2022-12-19T13:18:40.397Z,49.80
2022-12-19T13:21:10.913Z,51.80
2022-12-19T13:24:16.140Z,55.13
2022-12-19T13:26:47.781Z,51.90
2022-12-19T13:29:31.010Z,51.43
2022-12-19T13:32:13.000Z,57.50
2022-12-19T13:34:42.346Z,53.07
2022-12-19T13:39:59.856Z,53.33
2022-12-19T13:40:32.466Z,53.13
2022-12-19T13:43:32.419Z,51.37
2022-12-19T13:46:03.027Z,52.40
2022-12-19T13:48:34.604Z,53.00
2022-12-19T13:51:07.118Z,54.13
2022-12-19T13:53:36.401Z,53.33
2022-12-19T13:56:06.506Z,52.70
2022-12-19T13:58:45.050Z,53.33
2022-12-19T14:01:21.517Z,55.33
2022-12-19T14:03:57.122Z,53.93
2022-12-19T14:06:39.381Z,54.47
2022-12-19T14:11:25.559Z,55.63
2022-12-19T14:13:46.799Z,53.90
2022-12-19T14:15:12.719Z,55.60
2022-12-19T14:17:42.481Z,54.50
2022-12-19T14:20:48.704Z,53.40
2022-12-19T14:23:08.060Z,50.73
2022-12-19T14:28:21.893Z,51.17
2022-12-19T14:28:38.200Z,52.23
2022-12-19T14:31:09.865Z,48.43
2022-12-19T14:33:59.006Z,48.10
2022-12-19T14:36:34.374Z,50.73
2022-12-19T14:39:22.026Z,50.83
2022-12-19T14:42:11.840Z,47.43
2022-12-19T14:51:25.179Z,48.03
2022-12-19T14:52:26.108Z,54.60
2022-12-19T14:54:18.342Z,46.80
2022-12-19T14:54:32.370Z,49.20
2022-12-19T14:59:03.137Z,47.97
2022-12-19T15:01:35.283Z,45.63
2022-12-19T15:04:51.893Z,42.97
2022-12-19T15:07:09.586Z,45.70
2022-12-19T15:11:06.499Z,42.17
2022-12-19T15:14:53.928Z,41.67
2022-12-19T15:16:04.029Z,43.37
2022-12-19T15:18:40.544Z,43.70
2022-12-19T15:21:10.964Z,42.00
2022-12-19T15:23:39.293Z,39.80
2022-12-19T15:26:13.661Z,40.03
2022-12-19T15:28:43.384Z,39.87
2022-12-19T15:31:32.229Z,40.60
2022-12-19T15:34:33.172Z,38.07
2022-12-19T15:36:49.051Z,38.70
2022-12-19T15:39:17.440Z,36.83
2022-12-19T15:41:49.908Z,37.37
2022-12-19T15:44:21.374Z,36.23
2022-12-19T15:46:50.151Z,35.63
2022-12-19T15:49:19.592Z,35.80
2022-12-19T15:51:48.509Z,36.23
2022-12-19T15:57:07.235Z,35.40
2022-12-19T15:59:39.842Z,35.13
2022-12-19T16:02:18.670Z,32.33
2022-12-19T16:04:48.675Z,34.00
2022-12-19T16:07:18.634Z,31.50
2022-12-19T16:09:46.763Z,32.00
2022-12-19T16:12:18.117Z,31.93
2022-12-19T16:14:47.638Z,35.40
2022-12-19T16:17:21.013Z,38.63
2022-12-19T16:19:49.237Z,33.00
2022-12-19T16:22:20.024Z,33.00
2022-12-19T16:24:48.203Z,30.53
2022-12-19T16:27:24.840Z,29.60
2022-12-19T16:29:54.005Z,29.53
2022-12-19T16:32:24.314Z,30.70
2022-12-19T16:34:53.441Z,30.43
2022-12-19T16:37:23.560Z,31.57
2022-12-19T16:39:55.334Z,30.97
2022-12-19T16:42:24.801Z,29.07
2022-12-19T16:44:53.691Z,30.57
2022-12-19T16:47:22.584Z,29.27
2022-12-19T16:49:50.765Z,29.37
2022-12-19T16:52:18.850Z,29.53
2022-12-19T16:54:46.962Z,29.73
2022-12-19T16:57:20.288Z,29.90
2022-12-19T16:59:50.962Z,30.47
2022-12-19T17:02:43.221Z,28.53
2022-12-19T17:05:23.143Z,29.40
2022-12-19T17:07:52.121Z,32.03
2022-12-19T17:10:26.049Z,31.43
2022-12-19T17:12:55.627Z,26.93
2022-12-19T17:15:28.079Z,28.33
2022-12-19T17:17:58.268Z,30.27
2022-12-19T17:20:29.810Z,30.50
2022-12-19T17:22:58.349Z,22.47
2022-12-19T17:25:28.471Z,28.30
2022-12-19T17:27:57.283Z,27.90
2022-12-19T17:30:26.795Z,26.70
2022-12-19T17:32:56.522Z,26.97
2022-12-19T17:35:28.276Z,28.50
2022-12-19T17:37:58.200Z,27.57
2022-12-19T17:40:29.638Z,26.67
2022-12-19T17:42:58.834Z,27.43
2022-12-19T17:45:30.631Z,25.03
2022-12-19T17:48:03.345Z,26.70
2022-12-19T17:50:35.703Z,25.33
2022-12-19T17:53:03.913Z,25.80
2022-12-19T17:55:32.207Z,25.40
2022-12-19T17:58:00.569Z,24.30
2022-12-19T18:00:33.108Z,30.70
2022-12-19T18:03:05.012Z,27.03
2022-12-19T18:05:35.852Z,23.23
2022-12-19T18:08:05.153Z,24.70
2022-12-19T18:10:36.107Z,23.33
2022-12-19T18:13:05.555Z,23.10
2022-12-19T18:15:36.348Z,23.57
2022-12-19T18:18:04.643Z,22.20
2022-12-19T18:20:36.150Z,24.43
2022-12-19T18:23:04.343Z,21.73
2022-12-19T18:25:35.188Z,20.80
2022-12-19T18:28:03.643Z,21.70
2022-12-19T18:30:31.878Z,19.97
2022-12-19T18:33:03.471Z,20.80
2022-12-19T18:35:35.842Z,19.70
2022-12-19T18:38:08.088Z,21.70
2022-12-19T18:40:36.320Z,19.87
2022-12-19T18:43:04.607Z,19.67
2022-12-19T18:45:37.239Z,17.77
2022-12-19T18:48:13.835Z,19.23
2022-12-19T18:50:42.084Z,21.73
2022-12-19T18:53:12.960Z,20.17
2022-12-19T18:55:41.104Z,20.00
2022-12-19T18:58:09.196Z,17.77
2022-12-19T19:00:39.846Z,17.37
2022-12-19T19:03:15.296Z,17.77
2022-12-19T19:05:44.052Z,18.77
2022-12-19T19:08:19.024Z,17.03
2022-12-19T19:10:55.118Z,17.47
2022-12-19T19:13:25.551Z,17.10
2022-12-19T19:15:55.857Z,17.87
2022-12-19T19:18:29.925Z,17.43
2022-12-19T19:21:01.237Z,17.43
2022-12-19T19:23:34.976Z,17.80
2022-12-19T19:26:03.538Z,17.60
2022-12-19T19:28:32.211Z,16.60
2022-12-19T19:31:02.107Z,17.57
2022-12-19T19:33:34.957Z,17.03
2022-12-19T19:36:11.998Z,16.20
2022-12-19T19:38:43.786Z,16.10
2022-12-19T19:41:12.664Z,14.60
2022-12-19T19:43:41.243Z,16.27
2022-12-19T19:46:09.920Z,14.90
2022-12-19T19:48:41.336Z,15.00
2022-12-19T19:51:09.682Z,15.27
2022-12-19T19:53:37.862Z,14.73
2022-12-19T19:56:06.379Z,14.57
2022-12-19T19:58:34.716Z,14.60
2022-12-19T20:01:08.666Z,13.30
2022-12-19T20:03:36.996Z,14.30
2022-12-19T20:06:07.811Z,15.20
2022-12-19T20:08:39.782Z,13.13
2022-12-19T20:11:10.535Z,14.43
2022-12-19T20:13:39.279Z,14.27
2022-12-19T20:16:09.762Z,13.87
2022-12-19T20:18:39.845Z,12.97
2022-12-19T20:21:13.532Z,13.93
2022-12-19T20:23:44.182Z,14.20
2022-12-19T20:26:14.057Z,14.17
2022-12-19T20:28:48.310Z,14.77
2022-12-19T20:31:17.677Z,13.80
2022-12-19T20:33:46.380Z,13.83
2022-12-19T20:36:17.759Z,13.03
2022-12-19T20:38:46.004Z,14.30
2022-12-19T20:41:14.444Z,14.70
2022-12-19T20:43:43.105Z,14.30
2022-12-19T20:46:13.232Z,14.03
2022-12-19T20:48:42.230Z,14.27
2022-12-19T20:51:11.010Z,13.40
2022-12-19T20:53:41.652Z,14.60
2022-12-19T20:56:12.868Z,14.50
2022-12-19T20:58:41.125Z,14.77
2022-12-19T21:01:11.121Z,12.60
2022-12-19T21:03:40.107Z,15.20
2022-12-19T21:06:10.349Z,12.43
2022-12-19T21:08:40.557Z,12.77
2022-12-19T21:11:10.511Z,12.00
2022-12-19T21:13:39.649Z,14.10
2022-12-19T21:16:10.164Z,13.53
2022-12-19T21:18:40.391Z,12.80
2022-12-19T21:21:11.910Z,17.23
2022-12-19T21:23:41.524Z,12.70
2022-12-19T21:26:09.669Z,13.40
2022-12-19T21:28:38.473Z,13.17
2022-12-19T21:31:17.257Z,12.97
2022-12-19T21:33:46.925Z,12.60
2022-12-19T21:36:18.969Z,13.87
2022-12-19T21:38:49.744Z,14.90
2022-12-19T21:41:19.144Z,12.37
2022-12-19T21:43:48.956Z,12.43
2022-12-19T21:46:18.333Z,12.80
2022-12-19T21:48:48.667Z,12.10
2022-12-19T21:51:18.481Z,12.33
2022-12-19T21:53:49.619Z,12.53
2022-12-19T21:56:26.524Z,12.80
2022-12-19T21:58:56.380Z,12.13
2022-12-19T22:01:25.331Z,12.57
2022-12-19T22:03:53.786Z,13.30
2022-12-19T22:06:28.442Z,12.50
2022-12-19T22:08:58.146Z,12.70
2022-12-19T22:11:26.350Z,12.77
2022-12-19T22:13:56.042Z,12.83
2022-12-19T22:16:24.269Z,12.53
2022-12-19T22:18:53.117Z,12.97
2022-12-19T22:21:22.246Z,12.47
2022-12-19T22:23:50.538Z,12.40
2022-12-19T22:26:21.987Z,12.50
2022-12-19T22:28:52.115Z,12.50
2022-12-19T22:31:22.647Z,11.50
2022-12-19T22:34:06.752Z,12.40
2022-12-19T22:36:36.129Z,14.13
2022-12-19T22:39:06.235Z,11.40
2022-12-19T22:41:36.829Z,12.37
2022-12-19T22:44:05.363Z,12.27
2022-12-19T22:46:35.716Z,14.27
2022-12-19T22:49:05.279Z,12.80
2022-12-19T22:51:37.040Z,12.20
2022-12-19T22:54:06.013Z,12.20
2022-12-19T22:56:36.636Z,12.50
2022-12-19T22:59:07.152Z,11.93
2022-12-19T23:01:37.810Z,11.97
2022-12-19T23:04:07.786Z,11.60
2022-12-19T23:06:37.846Z,13.97
2022-12-19T23:09:06.937Z,13.00
2022-12-19T23:11:39.614Z,13.67
2022-12-19T23:14:09.644Z,11.63
2022-12-19T23:16:37.964Z,12.43
2022-12-19T23:19:06.555Z,12.00
2022-12-19T23:21:34.655Z,12.40
2022-12-19T23:24:02.819Z,11.93
2022-12-19T23:26:33.328Z,11.10
2022-12-19T23:29:05.126Z,11.50
2022-12-19T23:31:34.486Z,11.93
2022-12-19T23:34:03.085Z,12.00
2022-12-19T23:39:19.507Z,10.17
2022-12-19T23:41:47.626Z,11.60
2022-12-19T23:44:17.431Z,11.80
2022-12-19T23:46:45.523Z,10.80
2022-12-19T23:49:13.716Z,11.40
2022-12-19T23:51:41.770Z,12.37
2022-12-19T23:54:09.808Z,11.00
2022-12-19T23:56:38.178Z,10.07
2022-12-19T23:59:06.462Z,10.83
